sensor_id;sensor_type;location;lat;lon;timestamp;pressure;altitude;pressure_sealevel;temperature;humidity
32933;BME280;19444;50.518;10.870;2024-02-04T00:00:22;97093.22;;;7.83;100.00
32933;BME280;19444;50.518;10.870;2024-02-04T00:03:19;97099.63;;;7.77;100.00
32933;BME280;19444;50.518;10.870;2024-02-04T00:06:18;97083.56;;;7.92;100.00
32933;BME280;19444;50.518;10.870;2024-02-04T00:09:15;97080.59;;;7.93;100.00
32933;BME280;19444;50.518;10.870;2024-02-04T00:12:12;97090.19;;;7.99;100.00
32933;BME280;19444;50.518;10.870;2024-02-04T00:15:09;97082.81;;;7.86;100.00
32933;BME280;19444;50.518;10.870;2024-02-04T00:18:06;97082.50;;;8.32;100.00
32933;BME280;19444;50.518;10.870;2024-02-04T00:21:04;97087.81;;;8.37;100.00
32933;BME280;19444;50.518;10.870;2024-02-04T00:24:01;97079.81;;;7.93;100.00
32933;BME280;19444;50.518;10.870;2024-02-04T00:26:58;97076.31;;;7.97;100.00
32933;BME280;19444;50.518;10.870;2024-02-04T00:29:54;97094.06;;;8.17;100.00
32933;BME280;19444;50.518;10.870;2024-02-04T00:32:51;97082.25;;;7.89;100.00
32933;BME280;19444;50.518;10.870;2024-02-04T00:35:48;97080.31;;;8.00;100.00
32933;BME280;19444;50.518;10.870;2024-02-04T00:38:45;97084.22;;;8.13;100.00
32933;BME280;19444;50.518;10.870;2024-02-04T00:41:42;97089.44;;;7.89;100.00
32933;BME280;19444;50.518;10.870;2024-02-04T00:44:39;97108.56;;;8.06;100.00
32933;BME280;19444;50.518;10.870;2024-02-04T00:47:36;97096.22;;;8.15;100.00
32933;BME280;19444;50.518;10.870;2024-02-04T00:50:33;97102.59;;;8.24;100.00
32933;BME280;19444;50.518;10.870;2024-02-04T00:53:30;97095.47;;;8.10;100.00
32933;BME280;19444;50.518;10.870;2024-02-04T00:56:30;97083.84;;;8.35;100.00
32933;BME280;19444;50.518;10.870;2024-02-04T00:59:27;97087.97;;;8.12;100.00
32933;BME280;19444;50.518;10.870;2024-02-04T01:02:24;97093.28;;;8.17;100.00
32933;BME280;19444;50.518;10.870;2024-02-04T01:05:21;97081.69;;;8.32;100.00
32933;BME280;19444;50.518;10.870;2024-02-04T01:08:18;97079.34;;;8.25;100.00
32933;BME280;19444;50.518;10.870;2024-02-04T01:11:15;97071.41;;;8.54;100.00
32933;BME280;19444;50.518;10.870;2024-02-04T01:14:11;97076.84;;;8.39;100.00
32933;BME280;19444;50.518;10.870;2024-02-04T01:17:08;97067.94;;;8.53;100.00
32933;BME280;19444;50.518;10.870;2024-02-04T01:20:06;97079.50;;;8.05;100.00
32933;BME280;19444;50.518;10.870;2024-02-04T01:23:03;97067.16;;;8.14;100.00
32933;BME280;19444;50.518;10.870;2024-02-04T01:26:00;97074.31;;;8.18;100.00
32933;BME280;19444;50.518;10.870;2024-02-04T01:28:57;97070.56;;;8.19;100.00
32933;BME280;19444;50.518;10.870;2024-02-04T01:31:54;97065.66;;;7.97;100.00
32933;BME280;19444;50.518;10.870;2024-02-04T01:34:51;97065.94;;;8.30;100.00
32933;BME280;19444;50.518;10.870;2024-02-04T01:37:48;97076.84;;;7.99;100.00
32933;BME280;19444;50.518;10.870;2024-02-04T01:40:45;97073.50;;;8.23;100.00
32933;BME280;19444;50.518;10.870;2024-02-04T01:43:43;97074.63;;;8.12;100.00
32933;BME280;19444;50.518;10.870;2024-02-04T01:46:40;97056.56;;;7.98;100.00
32933;BME280;19444;50.518;10.870;2024-02-04T01:49:38;97069.84;;;8.04;100.00
32933;BME280;19444;50.518;10.870;2024-02-04T01:52:37;97069.69;;;8.29;100.00
32933;BME280;19444;50.518;10.870;2024-02-04T01:55:36;97062.72;;;8.38;100.00
32933;BME280;19444;50.518;10.870;2024-02-04T01:58:35;97057.72;;;8.26;100.00
32933;BME280;19444;50.518;10.870;2024-02-04T02:01:32;97065.06;;;8.06;100.00
32933;BME280;19444;50.518;10.870;2024-02-04T02:04:31;97054.72;;;8.33;100.00
32933;BME280;19444;50.518;10.870;2024-02-04T02:07:28;97063.91;;;8.17;100.00
32933;BME280;19444;50.518;10.870;2024-02-04T02:10:25;97054.09;;;8.46;100.00
32933;BME280;19444;50.518;10.870;2024-02-04T02:13:29;97055.97;;;8.46;100.00
32933;BME280;19444;50.518;10.870;2024-02-04T02:16:30;97053.88;;;8.72;100.00
32933;BME280;19444;50.518;10.870;2024-02-04T02:20:06;97063.28;;;8.30;100.00
32933;BME280;19444;50.518;10.870;2024-02-04T02:23:11;97069.78;;;8.19;100.00
32933;BME280;19444;50.518;10.870;2024-02-04T02:26:10;97079.84;;;8.32;100.00
32933;BME280;19444;50.518;10.870;2024-02-04T02:29:07;97079.78;;;8.42;100.00
32933;BME280;19444;50.518;10.870;2024-02-04T02:32:05;97086.34;;;8.55;100.00
32933;BME280;19444;50.518;10.870;2024-02-04T02:35:03;97081.38;;;8.43;100.00
32933;BME280;19444;50.518;10.870;2024-02-04T02:38:33;97092.66;;;8.35;100.00
32933;BME280;19444;50.518;10.870;2024-02-04T02:41:34;97088.97;;;8.21;100.00
32933;BME280;19444;50.518;10.870;2024-02-04T02:44:32;97087.63;;;8.23;100.00
32933;BME280;19444;50.518;10.870;2024-02-04T02:47:32;97076.69;;;8.20;100.00
32933;BME280;19444;50.518;10.870;2024-02-04T02:50:29;97075.34;;;8.22;100.00
32933;BME280;19444;50.518;10.870;2024-02-04T02:53:26;97070.53;;;8.24;100.00
32933;BME280;19444;50.518;10.870;2024-02-04T02:56:23;97060.38;;;8.26;100.00
32933;BME280;19444;50.518;10.870;2024-02-04T02:59:20;97061.53;;;8.49;100.00
32933;BME280;19444;50.518;10.870;2024-02-04T03:02:17;97070.44;;;8.74;100.00
32933;BME280;19444;50.518;10.870;2024-02-04T03:05:16;97065.78;;;8.55;100.00
32933;BME280;19444;50.518;10.870;2024-02-04T03:08:13;97053.91;;;8.38;100.00
32933;BME280;19444;50.518;10.870;2024-02-04T03:11:09;97051.66;;;8.11;100.00
32933;BME280;19444;50.518;10.870;2024-02-04T03:14:06;97036.72;;;8.10;100.00
32933;BME280;19444;50.518;10.870;2024-02-04T03:17:03;97048.09;;;8.25;100.00
32933;BME280;19444;50.518;10.870;2024-02-04T03:20:00;97049.13;;;8.30;100.00
32933;BME280;19444;50.518;10.870;2024-02-04T03:22:58;97046.41;;;8.40;100.00
32933;BME280;19444;50.518;10.870;2024-02-04T03:25:55;97033.66;;;8.26;100.00
32933;BME280;19444;50.518;10.870;2024-02-04T03:28:51;97044.34;;;8.26;100.00
32933;BME280;19444;50.518;10.870;2024-02-04T03:31:49;97029.28;;;8.41;100.00
32933;BME280;19444;50.518;10.870;2024-02-04T03:34:46;97040.88;;;8.26;100.00
32933;BME280;19444;50.518;10.870;2024-02-04T03:37:43;97054.19;;;8.31;100.00
32933;BME280;19444;50.518;10.870;2024-02-04T03:40:40;97048.94;;;8.21;100.00
32933;BME280;19444;50.518;10.870;2024-02-04T03:43:39;97051.28;;;8.27;100.00
32933;BME280;19444;50.518;10.870;2024-02-04T03:46:36;97042.59;;;8.51;100.00
32933;BME280;19444;50.518;10.870;2024-02-04T03:49:36;97040.09;;;8.25;100.00
32933;BME280;19444;50.518;10.870;2024-02-04T03:52:33;97026.78;;;8.20;100.00
32933;BME280;19444;50.518;10.870;2024-02-04T03:55:30;97033.50;;;8.13;100.00
32933;BME280;19444;50.518;10.870;2024-02-04T03:58:27;97029.28;;;8.07;100.00
32933;BME280;19444;50.518;10.870;2024-02-04T04:01:27;97027.06;;;8.19;100.00
32933;BME280;19444;50.518;10.870;2024-02-04T04:04:24;97025.88;;;8.35;100.00
32933;BME280;19444;50.518;10.870;2024-02-04T04:07:23;97021.44;;;8.20;100.00
32933;BME280;19444;50.518;10.870;2024-02-04T04:10:20;97023.94;;;8.07;100.00
32933;BME280;19444;50.518;10.870;2024-02-04T04:13:17;97024.28;;;8.34;100.00
32933;BME280;19444;50.518;10.870;2024-02-04T04:16:14;97014.97;;;8.26;100.00
32933;BME280;19444;50.518;10.870;2024-02-04T04:19:11;97005.59;;;8.29;100.00
32933;BME280;19444;50.518;10.870;2024-02-04T04:22:08;97012.13;;;8.13;100.00
32933;BME280;19444;50.518;10.870;2024-02-04T04:25:05;97003.03;;;8.19;100.00
32933;BME280;19444;50.518;10.870;2024-02-04T04:28:02;97009.47;;;8.13;100.00
32933;BME280;19444;50.518;10.870;2024-02-04T04:30:59;97003.25;;;9.09;100.00
32933;BME280;19444;50.518;10.870;2024-02-04T04:33:56;97003.25;;;8.22;100.00
32933;BME280;19444;50.518;10.870;2024-02-04T04:36:54;97000.66;;;8.12;100.00
32933;BME280;19444;50.518;10.870;2024-02-04T04:39:51;97007.31;;;7.81;100.00
32933;BME280;19444;50.518;10.870;2024-02-04T04:42:47;97011.00;;;7.90;100.00
32933;BME280;19444;50.518;10.870;2024-02-04T04:45:44;97002.78;;;8.78;100.00
32933;BME280;19444;50.518;10.870;2024-02-04T04:48:41;96998.31;;;7.72;100.00
32933;BME280;19444;50.518;10.870;2024-02-04T04:51:38;96999.53;;;7.84;100.00
32933;BME280;19444;50.518;10.870;2024-02-04T04:54:35;97009.69;;;7.87;100.00
32933;BME280;19444;50.518;10.870;2024-02-04T04:57:32;97011.50;;;7.92;100.00
32933;BME280;19444;50.518;10.870;2024-02-04T05:00:29;97005.41;;;7.86;100.00
32933;BME280;19444;50.518;10.870;2024-02-04T05:03:27;96996.19;;;8.08;100.00
32933;BME280;19444;50.518;10.870;2024-02-04T05:06:24;96998.66;;;7.94;100.00
32933;BME280;19444;50.518;10.870;2024-02-04T05:09:21;97005.00;;;8.03;100.00
32933;BME280;19444;50.518;10.870;2024-02-04T05:12:18;97006.38;;;8.01;100.00
32933;BME280;19444;50.518;10.870;2024-02-04T05:15:15;96993.81;;;8.01;100.00
32933;BME280;19444;50.518;10.870;2024-02-04T05:18:12;96987.31;;;7.78;100.00
32933;BME280;19444;50.518;10.870;2024-02-04T05:21:09;96986.66;;;7.96;100.00
32933;BME280;19444;50.518;10.870;2024-02-04T05:24:06;96979.06;;;7.75;100.00
32933;BME280;19444;50.518;10.870;2024-02-04T05:27:03;96991.88;;;7.73;100.00
32933;BME280;19444;50.518;10.870;2024-02-04T05:30:02;96997.22;;;7.73;100.00
32933;BME280;19444;50.518;10.870;2024-02-04T05:32:59;96998.78;;;7.79;100.00
32933;BME280;19444;50.518;10.870;2024-02-04T05:35:56;97000.09;;;7.86;100.00
32933;BME280;19444;50.518;10.870;2024-02-04T05:38:53;96984.59;;;7.88;100.00
32933;BME280;19444;50.518;10.870;2024-02-04T05:41:50;96982.94;;;7.92;100.00
32933;BME280;19444;50.518;10.870;2024-02-04T05:44:47;96987.97;;;7.99;100.00
32933;BME280;19444;50.518;10.870;2024-02-04T05:47:44;96979.16;;;7.98;100.00
32933;BME280;19444;50.518;10.870;2024-02-04T05:50:41;96987.69;;;8.01;100.00
32933;BME280;19444;50.518;10.870;2024-02-04T05:53:38;96982.91;;;7.97;100.00
32933;BME280;19444;50.518;10.870;2024-02-04T05:56:35;96975.44;;;7.94;100.00
32933;BME280;19444;50.518;10.870;2024-02-04T05:59:36;96981.00;;;8.03;100.00
32933;BME280;19444;50.518;10.870;2024-02-04T06:02:33;96982.84;;;8.08;100.00
32933;BME280;19444;50.518;10.870;2024-02-04T06:05:30;96994.91;;;7.95;100.00
32933;BME280;19444;50.518;10.870;2024-02-04T06:08:27;96986.13;;;7.94;100.00
32933;BME280;19444;50.518;10.870;2024-02-04T06:11:24;96983.13;;;8.06;100.00
32933;BME280;19444;50.518;10.870;2024-02-04T06:14:20;96986.50;;;8.17;100.00
32933;BME280;19444;50.518;10.870;2024-02-04T06:17:17;96996.59;;;7.86;100.00
32933;BME280;19444;50.518;10.870;2024-02-04T06:20:14;96990.78;;;8.13;100.00
32933;BME280;19444;50.518;10.870;2024-02-04T06:23:11;96982.91;;;7.97;100.00
32933;BME280;19444;50.518;10.870;2024-02-04T06:26:08;96975.81;;;7.83;100.00
32933;BME280;19444;50.518;10.870;2024-02-04T06:29:05;96983.59;;;7.74;100.00
32933;BME280;19444;50.518;10.870;2024-02-04T06:32:02;96988.06;;;7.84;100.00
32933;BME280;19444;50.518;10.870;2024-02-04T06:34:59;96992.69;;;7.68;100.00
32933;BME280;19444;50.518;10.870;2024-02-04T06:37:56;96992.31;;;7.90;100.00
32933;BME280;19444;50.518;10.870;2024-02-04T06:40:57;96994.19;;;7.89;100.00
32933;BME280;19444;50.518;10.870;2024-02-04T06:43:54;96982.31;;;8.06;100.00
32933;BME280;19444;50.518;10.870;2024-02-04T06:46:51;97000.22;;;7.61;100.00
32933;BME280;19444;50.518;10.870;2024-02-04T06:49:47;96998.25;;;7.77;100.00
32933;BME280;19444;50.518;10.870;2024-02-04T06:52:46;96986.03;;;7.70;100.00
32933;BME280;19444;50.518;10.870;2024-02-04T06:55:43;96984.44;;;7.69;100.00
32933;BME280;19444;50.518;10.870;2024-02-04T06:58:41;96981.41;;;7.86;100.00
32933;BME280;19444;50.518;10.870;2024-02-04T07:01:38;96959.19;;;7.96;100.00
32933;BME280;19444;50.518;10.870;2024-02-04T07:04:35;96973.13;;;7.83;100.00
32933;BME280;19444;50.518;10.870;2024-02-04T07:07:32;96955.63;;;8.06;100.00
32933;BME280;19444;50.518;10.870;2024-02-04T07:10:30;96959.28;;;8.15;100.00
32933;BME280;19444;50.518;10.870;2024-02-04T07:13:27;96969.88;;;7.91;100.00
32933;BME280;19444;50.518;10.870;2024-02-04T07:16:27;96964.81;;;7.89;100.00
32933;BME280;19444;50.518;10.870;2024-02-04T07:19:24;96950.53;;;8.04;100.00
32933;BME280;19444;50.518;10.870;2024-02-04T07:22:21;96944.88;;;8.16;100.00
32933;BME280;19444;50.518;10.870;2024-02-04T07:25:18;96963.19;;;7.93;100.00
32933;BME280;19444;50.518;10.870;2024-02-04T07:28:15;96962.75;;;7.81;100.00
32933;BME280;19444;50.518;10.870;2024-02-04T07:31:14;96969.56;;;7.97;100.00
32933;BME280;19444;50.518;10.870;2024-02-04T07:34:11;96966.91;;;7.97;100.00
32933;BME280;19444;50.518;10.870;2024-02-04T07:37:08;96985.59;;;7.92;100.00
32933;BME280;19444;50.518;10.870;2024-02-04T07:40:06;96983.72;;;7.98;100.00
32933;BME280;19444;50.518;10.870;2024-02-04T07:43:03;96980.34;;;7.82;100.00
32933;BME280;19444;50.518;10.870;2024-02-04T07:46:02;96980.25;;;7.97;100.00
32933;BME280;19444;50.518;10.870;2024-02-04T07:49:01;96977.66;;;7.87;100.00
32933;BME280;19444;50.518;10.870;2024-02-04T07:51:58;96968.72;;;8.02;100.00
32933;BME280;19444;50.518;10.870;2024-02-04T07:54:55;96956.31;;;7.87;100.00
32933;BME280;19444;50.518;10.870;2024-02-04T07:57:52;96955.53;;;7.82;100.00
32933;BME280;19444;50.518;10.870;2024-02-04T08:00:49;96959.13;;;8.01;100.00
32933;BME280;19444;50.518;10.870;2024-02-04T08:03:46;96949.50;;;8.05;100.00
32933;BME280;19444;50.518;10.870;2024-02-04T08:06:44;96976.22;;;8.00;100.00
32933;BME280;19444;50.518;10.870;2024-02-04T08:09:41;96975.09;;;8.06;100.00
32933;BME280;19444;50.518;10.870;2024-02-04T08:12:39;96966.06;;;8.02;100.00
32933;BME280;19444;50.518;10.870;2024-02-04T08:15:36;96955.81;;;8.14;100.00
32933;BME280;19444;50.518;10.870;2024-02-04T08:18:33;96954.28;;;8.37;100.00
32933;BME280;19444;50.518;10.870;2024-02-04T08:21:30;96956.19;;;8.32;100.00
32933;BME280;19444;50.518;10.870;2024-02-04T08:24:28;96955.25;;;8.51;100.00
32933;BME280;19444;50.518;10.870;2024-02-04T08:27:26;96943.66;;;8.32;100.00
32933;BME280;19444;50.518;10.870;2024-02-04T08:30:23;96944.31;;;8.48;100.00
32933;BME280;19444;50.518;10.870;2024-02-04T08:33:20;96950.72;;;8.18;100.00
32933;BME280;19444;50.518;10.870;2024-02-04T08:36:18;96950.13;;;8.21;100.00
32933;BME280;19444;50.518;10.870;2024-02-04T08:39:15;96943.91;;;8.36;100.00
32933;BME280;19444;50.518;10.870;2024-02-04T08:42:12;96957.56;;;8.58;100.00
32933;BME280;19444;50.518;10.870;2024-02-04T08:45:10;96957.75;;;8.38;100.00
32933;BME280;19444;50.518;10.870;2024-02-04T08:48:07;96938.66;;;8.20;100.00
32933;BME280;19444;50.518;10.870;2024-02-04T08:51:04;96927.56;;;8.42;100.00
32933;BME280;19444;50.518;10.870;2024-02-04T08:54:06;96928.13;;;8.34;100.00
32933;BME280;19444;50.518;10.870;2024-02-04T08:57:04;96943.97;;;8.25;100.00
32933;BME280;19444;50.518;10.870;2024-02-04T09:00:01;96942.09;;;8.26;100.00
32933;BME280;19444;50.518;10.870;2024-02-04T09:02:58;96944.19;;;8.29;100.00
32933;BME280;19444;50.518;10.870;2024-02-04T09:05:57;96950.13;;;8.21;100.00
32933;BME280;19444;50.518;10.870;2024-02-04T09:08:54;96955.09;;;8.38;100.00
32933;BME280;19444;50.518;10.870;2024-02-04T09:11:51;96951.34;;;8.39;100.00
32933;BME280;19444;50.518;10.870;2024-02-04T09:14:47;96960.94;;;8.40;100.00
32933;BME280;19444;50.518;10.870;2024-02-04T09:17:45;96957.47;;;8.39;100.00
32933;BME280;19444;50.518;10.870;2024-02-04T09:20:42;96950.25;;;8.69;100.00
32933;BME280;19444;50.518;10.870;2024-02-04T09:23:39;96929.25;;;8.57;100.00
32933;BME280;19444;50.518;10.870;2024-02-04T09:26:36;96920.00;;;8.73;100.00
32933;BME280;19444;50.518;10.870;2024-02-04T09:29:33;96937.31;;;8.23;100.00
32933;BME280;19444;50.518;10.870;2024-02-04T09:32:30;96951.19;;;8.54;100.00
32933;BME280;19444;50.518;10.870;2024-02-04T09:35:27;96941.63;;;8.48;100.00
32933;BME280;19444;50.518;10.870;2024-02-04T09:38:25;96943.03;;;8.40;100.00
32933;BME280;19444;50.518;10.870;2024-02-04T09:41:22;96940.94;;;8.37;100.00
32933;BME280;19444;50.518;10.870;2024-02-04T09:44:23;96955.16;;;8.57;100.00
32933;BME280;19444;50.518;10.870;2024-02-04T09:47:21;96946.69;;;8.49;100.00
32933;BME280;19444;50.518;10.870;2024-02-04T09:50:20;96957.94;;;8.12;100.00
32933;BME280;19444;50.518;10.870;2024-02-04T09:53:24;96949.06;;;8.22;100.00
32933;BME280;19444;50.518;10.870;2024-02-04T09:56:26;96939.16;;;8.57;100.00
32933;BME280;19444;50.518;10.870;2024-02-04T09:59:23;96945.56;;;8.55;100.00
32933;BME280;19444;50.518;10.870;2024-02-04T10:02:20;96940.63;;;8.44;100.00
32933;BME280;19444;50.518;10.870;2024-02-04T10:05:18;96927.16;;;8.78;100.00
32933;BME280;19444;50.518;10.870;2024-02-04T10:08:15;96935.88;;;8.89;100.00
32933;BME280;19444;50.518;10.870;2024-02-04T10:11:17;96928.00;;;8.49;100.00
32933;BME280;19444;50.518;10.870;2024-02-04T10:14:16;96916.53;;;8.73;100.00
32933;BME280;19444;50.518;10.870;2024-02-04T10:17:15;96914.19;;;8.42;100.00
32933;BME280;19444;50.518;10.870;2024-02-04T10:20:12;96912.25;;;8.48;100.00
32933;BME280;19444;50.518;10.870;2024-02-04T10:23:14;96911.59;;;8.61;100.00
32933;BME280;19444;50.518;10.870;2024-02-04T10:26:11;96914.00;;;8.34;100.00
32933;BME280;19444;50.518;10.870;2024-02-04T10:29:08;96915.31;;;8.36;100.00
32933;BME280;19444;50.518;10.870;2024-02-04T10:32:06;96909.22;;;8.60;100.00
32933;BME280;19444;50.518;10.870;2024-02-04T10:35:03;96902.75;;;8.37;100.00
32933;BME280;19444;50.518;10.870;2024-02-04T10:38:01;96904.06;;;8.39;100.00
32933;BME280;19444;50.518;10.870;2024-02-04T10:41:00;96894.75;;;8.37;100.00
32933;BME280;19444;50.518;10.870;2024-02-04T10:43:58;96892.16;;;8.26;100.00
32933;BME280;19444;50.518;10.870;2024-02-04T10:46:55;96900.38;;;8.30;100.00
32933;BME280;19444;50.518;10.870;2024-02-04T10:49:53;96879.19;;;8.44;100.00
32933;BME280;19444;50.518;10.870;2024-02-04T10:52:50;96868.94;;;8.27;100.00
32933;BME280;19444;50.518;10.870;2024-02-04T10:55:49;96862.72;;;8.37;100.00
32933;BME280;19444;50.518;10.870;2024-02-04T10:58:49;96864.28;;;8.14;100.00
32933;BME280;19444;50.518;10.870;2024-02-04T11:01:47;96857.78;;;8.20;100.00
32933;BME280;19444;50.518;10.870;2024-02-04T11:04:50;96856.38;;;8.27;100.00
32933;BME280;19444;50.518;10.870;2024-02-04T11:07:48;96849.06;;;8.38;100.00
32933;BME280;19444;50.518;10.870;2024-02-04T11:10:45;96828.22;;;8.40;100.00
32933;BME280;19444;50.518;10.870;2024-02-04T11:13:45;96830.31;;;8.43;100.00
32933;BME280;19444;50.518;10.870;2024-02-04T11:27:25;96805.44;;;8.24;100.00
32933;BME280;19444;50.518;10.870;2024-02-04T11:30:23;96806.28;;;8.43;100.00
32933;BME280;19444;50.518;10.870;2024-02-04T11:33:23;96797.16;;;8.20;100.00
32933;BME280;19444;50.518;10.870;2024-02-04T11:36:25;96795.53;;;8.24;100.00
32933;BME280;19444;50.518;10.870;2024-02-04T11:39:22;96797.63;;;8.27;100.00
32933;BME280;19444;50.518;10.870;2024-02-04T11:42:23;96796.97;;;8.17;100.00
32933;BME280;19444;50.518;10.870;2024-02-04T11:45:20;96795.94;;;8.37;100.00
32933;BME280;19444;50.518;10.870;2024-02-04T11:48:17;96803.19;;;8.31;100.00
32933;BME280;19444;50.518;10.870;2024-02-04T11:51:15;96788.03;;;8.50;100.00
32933;BME280;19444;50.518;10.870;2024-02-04T11:54:12;96792.66;;;8.45;100.00
32933;BME280;19444;50.518;10.870;2024-02-04T11:57:10;96807.88;;;8.44;100.00
32933;BME280;19444;50.518;10.870;2024-02-04T12:00:08;96796.56;;;8.52;100.00
32933;BME280;19444;50.518;10.870;2024-02-04T12:03:08;96802.41;;;8.54;100.00
32933;BME280;19444;50.518;10.870;2024-02-04T12:06:05;96792.47;;;8.60;100.00
32933;BME280;19444;50.518;10.870;2024-02-04T12:09:03;96789.00;;;8.60;100.00
32933;BME280;19444;50.518;10.870;2024-02-04T12:12:01;96796.16;;;9.02;100.00
32933;BME280;19444;50.518;10.870;2024-02-04T12:15:00;96783.00;;;8.87;100.00
32933;BME280;19444;50.518;10.870;2024-02-04T12:18:08;96786.41;;;8.92;100.00
32933;BME280;19444;50.518;10.870;2024-02-04T12:21:05;96794.78;;;8.86;100.00
32933;BME280;19444;50.518;10.870;2024-02-04T12:24:03;96796.34;;;8.87;100.00
32933;BME280;19444;50.518;10.870;2024-02-04T12:27:00;96781.78;;;8.60;100.00
32933;BME280;19444;50.518;10.870;2024-02-04T12:29:57;96788.13;;;8.64;100.00
32933;BME280;19444;50.518;10.870;2024-02-04T12:33:04;96790.00;;;8.64;100.00
32933;BME280;19444;50.518;10.870;2024-02-04T12:36:02;96791.00;;;8.87;100.00
32933;BME280;19444;50.518;10.870;2024-02-04T12:39:01;96784.81;;;8.72;100.00
32933;BME280;19444;50.518;10.870;2024-02-04T12:41:59;96779.94;;;8.55;100.00
32933;BME280;19444;50.518;10.870;2024-02-04T12:44:57;96786.59;;;8.77;100.00
32933;BME280;19444;50.518;10.870;2024-02-04T12:47:58;96765.59;;;8.70;100.00
32933;BME280;19444;50.518;10.870;2024-02-04T12:50:55;96764.22;;;8.92;100.00
32933;BME280;19444;50.518;10.870;2024-02-04T12:54:04;96759.38;;;8.94;100.00
32933;BME280;19444;50.518;10.870;2024-02-04T12:57:01;96769.34;;;9.07;100.00
32933;BME280;19444;50.518;10.870;2024-02-04T13:00:06;96775.09;;;8.58;100.00
32933;BME280;19444;50.518;10.870;2024-02-04T13:03:07;96774.31;;;8.57;100.00
32933;BME280;19444;50.518;10.870;2024-02-04T13:06:05;96766.31;;;8.57;100.00
32933;BME280;19444;50.518;10.870;2024-02-04T13:09:02;96761.34;;;8.50;100.00
32933;BME280;19444;50.518;10.870;2024-02-04T13:12:10;96744.38;;;8.60;100.00
32933;BME280;19444;50.518;10.870;2024-02-04T13:15:07;96754.63;;;8.53;100.00
32933;BME280;19444;50.518;10.870;2024-02-04T13:18:04;96770.72;;;8.67;100.00
32933;BME280;19444;50.518;10.870;2024-02-04T13:21:02;96763.63;;;8.57;100.00
32933;BME280;19444;50.518;10.870;2024-02-04T13:23:59;96755.91;;;8.74;100.00
32933;BME280;19444;50.518;10.870;2024-02-04T13:26:56;96755.56;;;8.62;100.00
32933;BME280;19444;50.518;10.870;2024-02-04T13:29:54;96751.38;;;8.75;100.00
32933;BME280;19444;50.518;10.870;2024-02-04T13:32:52;96768.63;;;8.64;100.00
32933;BME280;19444;50.518;10.870;2024-02-04T13:35:49;96776.06;;;8.86;100.00
32933;BME280;19444;50.518;10.870;2024-02-04T13:38:47;96777.16;;;8.84;100.00
32933;BME280;19444;50.518;10.870;2024-02-04T13:41:44;96789.25;;;8.58;100.00
32933;BME280;19444;50.518;10.870;2024-02-04T13:44:41;96792.09;;;8.67;100.00
32933;BME280;19444;50.518;10.870;2024-02-04T13:47:38;96818.09;;;8.61;100.00
32933;BME280;19444;50.518;10.870;2024-02-04T13:50:35;96827.59;;;8.48;100.00
32933;BME280;19444;50.518;10.870;2024-02-04T13:53:34;96818.97;;;8.75;100.00
32933;BME280;19444;50.518;10.870;2024-02-04T13:56:32;96800.63;;;9.06;100.00
32933;BME280;19444;50.518;10.870;2024-02-04T13:59:30;96801.34;;;9.12;100.00
32933;BME280;19444;50.518;10.870;2024-02-04T14:02:27;96784.47;;;8.98;100.00
32933;BME280;19444;50.518;10.870;2024-02-04T14:05:26;96776.03;;;9.42;100.00
32933;BME280;19444;50.518;10.870;2024-02-04T14:08:23;96783.03;;;9.84;100.00
32933;BME280;19444;50.518;10.870;2024-02-04T14:11:20;96767.28;;;9.36;100.00
32933;BME280;19444;50.518;10.870;2024-02-04T14:14:17;96761.06;;;9.22;100.00
32933;BME280;19444;50.518;10.870;2024-02-04T14:17:14;96763.41;;;9.89;100.00
32933;BME280;19444;50.518;10.870;2024-02-04T14:20:11;96773.66;;;9.54;100.00
32933;BME280;19444;50.518;10.870;2024-02-04T14:23:10;96765.75;;;9.30;100.00
32933;BME280;19444;50.518;10.870;2024-02-04T14:26:07;96769.19;;;9.50;100.00
32933;BME280;19444;50.518;10.870;2024-02-04T14:29:05;96764.97;;;9.30;100.00
32933;BME280;19444;50.518;10.870;2024-02-04T14:32:02;96758.03;;;9.29;100.00
32933;BME280;19444;50.518;10.870;2024-02-04T14:34:59;96761.97;;;9.18;100.00
32933;BME280;19444;50.518;10.870;2024-02-04T14:37:56;96758.13;;;9.24;100.00
32933;BME280;19444;50.518;10.870;2024-02-04T14:40:53;96767.22;;;9.23;100.00
32933;BME280;19444;50.518;10.870;2024-02-04T14:43:50;96764.72;;;9.45;100.00
32933;BME280;19444;50.518;10.870;2024-02-04T14:46:47;96765.44;;;9.18;100.00
32933;BME280;19444;50.518;10.870;2024-02-04T14:49:45;96749.84;;;9.06;100.00
32933;BME280;19444;50.518;10.870;2024-02-04T14:52:42;96749.41;;;9.32;100.00
32933;BME280;19444;50.518;10.870;2024-02-04T14:55:39;96762.88;;;9.27;100.00
32933;BME280;19444;50.518;10.870;2024-02-04T14:58:37;96750.81;;;9.29;100.00
32933;BME280;19444;50.518;10.870;2024-02-04T15:01:34;96744.75;;;9.05;100.00
32933;BME280;19444;50.518;10.870;2024-02-04T15:04:32;96750.47;;;9.17;100.00
32933;BME280;19444;50.518;10.870;2024-02-04T15:07:29;96749.13;;;8.82;100.00
32933;BME280;19444;50.518;10.870;2024-02-04T15:10:26;96747.31;;;8.77;100.00
32933;BME280;19444;50.518;10.870;2024-02-04T15:13:23;96759.22;;;9.04;100.00
32933;BME280;19444;50.518;10.870;2024-02-04T15:16:20;96749.47;;;8.94;100.00
32933;BME280;19444;50.518;10.870;2024-02-04T15:19:18;96761.59;;;9.24;100.00
32933;BME280;19444;50.518;10.870;2024-02-04T15:22:15;96749.38;;;9.18;100.00
32933;BME280;19444;50.518;10.870;2024-02-04T15:25:13;96751.75;;;8.87;100.00
32933;BME280;19444;50.518;10.870;2024-02-04T15:28:12;96760.41;;;8.98;100.00
32933;BME280;19444;50.518;10.870;2024-02-04T15:31:10;96749.97;;;9.15;100.00
32933;BME280;19444;50.518;10.870;2024-02-04T15:34:08;96735.16;;;9.83;100.00
32933;BME280;19444;50.518;10.870;2024-02-04T15:37:08;96727.91;;;10.88;100.00
32933;BME280;19444;50.518;10.870;2024-02-04T15:40:07;96731.78;;;10.82;100.00